Ira, Texas
Current Conditions -  °F | °C
As of 1:55 AM on Sunday 26 Oct 2014 (Local Time) from KSNK Reporting Station
Clear Clear  
Wind Chill: 61°   Ceiling: Unl
Heat Index: 61°   Visibility: 10mi
Dew Point: 52°   Wind: 5mph
Humidity: 73%   Direction: 200°SSW
Pressure: 30.08"   Gusts: NA
Location:  32.58°N, 101°W
Report Text: KSNK 260655Z AUTO 20004KT 10SM CLR 16/11 A3008 RMK AO2 T01600112
Loading
Personal Weather Stations






























Interactive Weather Map
Tropical Storm Tracking
New forecast layout! Learn more

10-Day Weather Forecast

Advertisements
Track Severe Weather on mobile